Valley Peak, Santa Cruz Island Reserve, California Weather observations

Data are for 10 minute period ending at time listed.
 Day   Time   Solar   Ave.   Ave.  Ave.  Vector  Max.   Baro.   Total    
  of    of     Rad.   Air    Rel.  Wind   Wind   Wind  Press.  Precip.   
Year   Day            Temp.  Hum.  Speed  Dir.   Gust                    
2014   (PST)  Kw/m2    F      %     mph   deg.    mph    mb.     in.     
-------------------------------------------------------------------------
 258   17:30   0.07   91.0    24    6.1   333    11.5   960.9    0.00 
 258   17:40   0.04   89.0    24    6.7   356    13.4   960.9    0.00 
 258   17:50   0.02   87.3    25    8.0   346    17.0   960.8    0.00 
 258   18:00   0.00   87.0    25   10.2   313    18.3   960.7    0.00 
 258   18:10   0.00   86.5    25   14.9   317    24.5   960.4    0.00 
 258   18:20   0.00   86.4    26   13.3   315    19.2   960.3    0.00 
 258   18:30   0.00   86.4    26   12.7   312    20.8   960.3    0.00 
 258   18:40   0.00   86.3    27   11.7   307    16.6   960.3    0.00 
 258   18:50   0.00   85.9    27   11.8   309    21.3   960.3    0.00 
 258   19:00   0.00   85.7    27   12.8   311    24.0   960.3    0.00 
 258   19:10   0.00   85.8    27   13.9   305    22.9   960.3    0.00 
 258   19:20   0.00   85.0    27   15.7   305    24.4   960.4    0.00 
 258   19:30   0.00   84.5    27   13.5   302    24.4   960.5    0.00 
 258   19:40   0.00   84.9    26   12.8   311    24.0   960.5    0.00 
 258   19:50   0.00   85.0    26   10.4   320    22.4   960.7    0.00 
 258   20:00   0.00   84.7    26    9.1   332    18.8   960.7    0.00 
 258   20:10   0.00   84.6    26   10.9   331    22.4   960.6    0.00 
 258   20:20   0.00   84.7    26   11.1   348    24.8   960.6    0.00 
 258   20:30   0.00   84.6    25   11.4   345    21.2   960.7    0.00 
 258   20:40   0.00   84.7    26   10.9   348    19.8   960.7    0.00 
 258   20:50   0.00   84.7    26   11.2   347    22.8   960.8    0.00 
 258   21:00   0.00   84.5    26   11.5   350    29.4   960.8    0.00 
 258   21:10   0.00   83.9    27   12.2     6    22.4   960.8    0.00 
 258   21:20   0.00   84.4    26   13.8     2    25.1   960.8    0.00 
 258   21:30   0.00   84.9    26   13.2     5    21.0   960.8    0.00 
 258   21:40   0.00   83.8    28   13.1    14    20.4   960.7    0.00 
 258   21:50   0.00   82.7    30   12.7    10    19.7   960.7    0.00 
 258   22:00   0.00   82.7    30   14.7    11    23.7   960.7    0.00 
 258   22:10   0.00   80.6    33   16.2    19    22.3   960.6    0.00 
 258   22:20   0.00   80.7    33   16.4    10    23.2   960.6    0.00 
 258   22:30   0.00   81.7    32   15.9    13    22.1   960.5    0.00 
 258   22:40   0.00   82.0    31   14.4    13    21.5   960.5    0.00 
 258   22:50   0.00   82.3    30   15.5    18    21.5   960.5    0.00 
 258   23:00   0.00   82.4    30   16.1    20    21.9   960.6    0.00 
 258   23:10   0.00   82.2    30   15.3    14    23.5   960.6    0.00 
 258   23:20   0.00   82.8    30   13.6     9    20.3   960.6    0.00 
 258   23:30   0.00   82.7    31   13.0     3    19.6   960.6    0.00 
 258   23:40   0.00   83.3    30   13.2     1    23.2   960.5    0.00 
 258   23:50   0.00   83.9    30   13.9     2    22.6   960.4    0.00 
 259    0:00   0.00   83.9    30   13.6     3    22.5   960.3    0.00 
 259    0:10   0.00   83.3    31   13.2     7    20.2   960.2    0.00 
 259    0:20   0.00   81.7    32   15.3    14    24.7   960.1    0.00 
 259    0:30   0.00   80.3    32   15.6    22    19.4   960.1    0.00 
 259    0:40   0.00   79.5    33   16.4    25    21.1   960.0    0.00 
 259    0:50   0.00   79.1    34   16.4    25    20.2   960.0    0.00 
 259    1:00   0.00   78.3    34   15.3    25    19.1   960.0    0.00 
 259    1:10   0.00   78.7    34   16.4    21    21.4   960.0    0.00 
 259    1:20   0.00   79.2    33   17.3    22    23.5   960.0    0.00 
 259    1:30   0.00   80.0    32   16.7    16    23.2   960.1    0.00 
 259    1:40   0.00   79.4    32   15.5    12    22.4   960.0    0.00 
 259    1:50   0.00   79.4    32   15.1    11    20.7   960.0    0.00 
 259    2:00   0.00   79.8    32   14.9    12    20.4   959.9    0.00 
 259    2:10   0.00   80.8    31   15.6     4    21.2   959.8    0.00 
 259    2:20   0.00   80.6    32   16.0     9    21.6   959.7    0.00 
 259    2:30   0.00   80.2    32   15.0    11    19.7   959.7    0.00 
 259    2:40   0.00   80.6    32   14.8    12    20.9   959.6    0.00 
 259    2:50   0.00   80.3    32   14.6     8    19.6   959.6    0.00 
 259    3:00   0.00   79.4    33   13.9     9    17.8   959.6    0.00 
 259    3:10   0.00   80.5    32   14.8     6    21.0   959.6    0.00 
 259    3:20   0.00   81.3    31   14.0     1    18.9   959.6    0.00 
 259    3:30   0.00   81.4    31   13.0     8    15.7   959.6    0.00 
 259    3:40   0.00   81.4    32   13.6   360    18.1   959.7    0.00 
 259    3:50   0.00   83.1    31   13.3   353    17.3   959.7    0.00 
 259    4:00   0.00   82.2    32   12.3   355    16.2   959.8    0.00 
 259    4:10   0.00   82.3    32   12.2   350    17.2   959.8    0.00 
 259    4:20   0.00   82.1    32   11.4   356    15.0   959.9    0.00 
 259    4:30   0.00   82.3    32   11.8   354    15.1   959.9    0.00 
 259    4:40   0.00   81.6    32   12.1     7    18.3   959.9    0.00 
 259    4:50   0.00   81.2    33   12.3     9    16.1   959.9    0.00 
 259    5:00   0.00   80.6    33   13.0     9    15.9   959.9    0.00 
 259    5:10   0.00   80.0    34   13.5     9    17.2   959.9    0.00 
 259    5:20   0.00   81.6    33   13.0     3    16.7   959.9    0.00 
 259    5:30   0.00   81.4    33   13.4     4    17.8   960.0    0.00 
 259    5:40   0.00   81.4    33   14.8   359    19.1   960.0    0.00 
 259    5:50   0.00   82.5    32   14.8   355    18.6   960.0    0.00 
 259    6:00   0.01   82.3    33   14.2   355    18.0   960.1    0.00 
 259    6:10   0.03   81.2    34   12.9     2    15.8   960.2    0.00 
 259    6:20   0.08   81.3    34   13.2     5    18.6   960.3    0.00 
 259    6:30   0.10   81.2    34   12.5     9    17.2   960.4    0.00 
 259    6:40   0.14   81.7    34   12.3     5    17.3   960.4    0.00 
 259    6:50   0.18   82.1    33   10.4    11    14.8   960.4    0.00 
 259    7:00   0.21   82.6    33    9.1    18    13.2   960.6    0.00 
 259    7:10   0.25   84.3    31    8.5    11    11.5   960.7    0.00 
 259    7:20   0.29   85.3    30    7.9    25    12.3   960.7    0.00 
 259    7:30   0.31   86.1    30    7.0    26    10.5   960.7    0.00 
 259    7:40   0.34   86.4    30    6.9    34     9.9   960.7    0.00 
 259    7:50   0.37   87.4    29    7.0    42     9.6   960.8    0.00 
 259    8:00   0.41   87.7    30    5.1    38     8.8   961.0    0.00 
 259    8:10   0.44   87.2    30    4.3    20     7.9   961.2    0.00 
 259    8:20   0.48   87.0    30    3.8    37     6.4   961.3    0.00 
 259    8:30   0.51   88.2    30    2.9    43     8.6   961.2    0.00 
 259    8:40   0.54   89.4    29    2.3    40     5.1   961.2    0.00 
 259    8:50   0.57   89.3    30    3.0    44     5.3   961.2    0.00 
 259    9:00   0.59   88.6    30    1.6   321     4.4   961.3    0.00 
 259    9:10   0.62   90.1    29    2.7     5     6.7   961.2    0.00 
 259    9:20   0.65   89.9    30    3.7    27     9.3   961.1    0.00 
 259    9:30   0.67   89.7    29    3.2     8     6.5   961.2    0.00 
 259    9:40   0.70   91.6    27    5.2   341    11.0   961.2    0.00 
 259    9:50   0.72   92.9    26    4.2   356    10.7   961.2    0.00 
 259   10:00   0.74   92.4    27    2.6    20     6.4   961.2    0.00 
 259   10:10   0.76   94.3    25    3.1    41     6.6   961.3    0.00 
 259   10:20   0.77   95.1    25    3.4   337     8.3   961.3    0.00 
 259   10:30   0.79   95.9    24    2.5    41     5.7   961.2    0.00 
 259   10:40   0.80   96.5    27    2.9   160     7.5   961.2    0.00 
 259   10:50   0.81   95.1    28    3.0   175     7.5   961.2    0.00 
 259   11:00   0.82   94.3    29    2.6   218     8.4   961.3    0.00 
 259   11:10   0.83   95.4    28    2.0   164     5.6   961.2    0.00 
 259   11:20   0.83   95.9    28    2.4   150     5.3   961.2    0.00 
 259   11:30   0.84   99.0    26    2.5   100     5.5   961.0    0.00 
 259   11:40   0.84   99.1    24    2.0    48     7.1   960.9    0.00 
 259   11:50   0.84   98.1    23    3.3    34     7.1   960.7    0.00 
 259   12:00   0.84   98.1    23    4.1    48     7.7   960.6    0.00 
 259   12:10   0.84   98.3    22    4.4    39     9.0   960.5    0.00 
 259   12:20   0.84   97.3    21    5.6   346    12.6   960.4    0.00 
 259   12:30   0.83   99.2    21    3.9    12     9.3   960.4    0.00 
 259   12:40   0.82   99.8    20    5.1    22    10.7   960.3    0.00 
 259   12:50   0.81   98.8    21    5.9    30    10.8   960.1    0.00 
 259   13:00   0.80   98.2    21    8.2    31    13.7   960.0    0.00 
 259   13:10   0.79   98.2    21    8.1    41    14.2   960.0    0.00 
 259   13:20   0.77   98.7    20    7.2    22    14.3   959.9    0.00 
 259   13:30   0.75   99.1    19    7.4    36    13.7   959.8    0.00 
 259   13:40   0.74   97.9    20    7.6    20    13.1   959.7    0.00 
 259   13:50   0.72   97.9    20    8.2    27    14.0   959.5    0.00 
 259   14:00   0.69   96.5    20    9.9    26    17.6   959.4    0.00 
 259   14:10   0.67   96.3    19    9.4    28    14.8   959.3    0.00 
 259   14:20   0.65   96.9    18    9.4    36    16.0   959.2    0.00 
 259   14:30   0.62   96.5    18    8.1    25    15.3   959.1    0.00 
 259   14:40   0.59   96.5    17    9.9    18    16.4   959.0    0.00 
 259   14:50   0.56   96.7    17   11.5    19    18.8   958.9    0.00 
 259   15:00   0.54   97.1    16   11.9     4    23.1   958.8    0.00 
 259   15:10   0.51   96.9    15   12.9   348    23.5   958.7    0.00 
 259   15:20   0.48   97.7    15   10.3   348    20.2   958.6    0.00 
 259   15:30   0.45   97.3    14   13.0   336    24.0   958.5    0.00 
 259   15:40   0.41   96.6    14   14.1   334    25.9   958.4    0.00 
 259   15:50   0.38   96.4    14   13.9   330    22.2   958.4    0.00 
 259   16:00   0.35   96.2    14   11.6   340    24.2   958.4    0.00 
 259   16:10   0.31   95.8    14   10.7   337    21.3   958.4    0.00 
 259   16:20   0.28   95.6    14    9.3   333    18.6   958.5    0.00 
 259   16:30   0.25   95.6    14    9.8   327    18.2   958.6    0.00 
 259   16:40   0.21   95.4    14    8.1   325    18.5   958.6    0.00 
 259   16:50   0.18   95.1    14   10.5   322    23.7   958.5    0.00 
 259   17:00   0.15   94.6    14    7.8   332    16.4   958.6    0.00 
 259   17:10   0.12   93.7    14    8.9   327    16.8   958.5    0.00 
 259   17:20   0.09   93.4    15   10.9   320    22.6   958.5    0.00 

Return to Valley Peak, Santa Cruz Island Reserve graphs page.


Western Regional Climate Center,wrcc@dri.edu